sensor_id;sensor_type;location;lat;lon;timestamp;pressure;altitude;pressure_sealevel;temperature;humidity
50065;BME280;64524;47.848;-122.338;2023-03-15T00:00:20;100318.20;;;9.58;100.00
50065;BME280;64524;47.848;-122.338;2023-03-15T00:02:57;100315.80;;;9.59;100.00
50065;BME280;64524;47.848;-122.338;2023-03-15T00:05:26;100314.77;;;9.60;100.00
50065;BME280;64524;47.848;-122.338;2023-03-15T00:07:54;100313.25;;;9.64;100.00
50065;BME280;64524;47.848;-122.338;2023-03-15T00:11:05;100313.62;;;9.68;100.00
50065;BME280;64524;47.848;-122.338;2023-03-15T00:13:44;100307.80;;;9.72;100.00
50065;BME280;64524;47.848;-122.338;2023-03-15T00:16:13;100300.38;;;9.74;100.00
50065;BME280;64524;47.848;-122.338;2023-03-15T00:19:22;100296.39;;;9.75;100.00
50065;BME280;64524;47.848;-122.338;2023-03-15T00:22:11;100291.91;;;9.77;100.00
50065;BME280;64524;47.848;-122.338;2023-03-15T00:25:04;100290.57;;;9.79;100.00
50065;BME280;64524;47.848;-122.338;2023-03-15T00:27:39;100288.15;;;9.81;100.00
50065;BME280;64524;47.848;-122.338;2023-03-15T00:30:21;100286.08;;;9.82;100.00
50065;BME280;64524;47.848;-122.338;2023-03-15T00:33:15;100284.54;;;9.85;100.00
50065;BME280;64524;47.848;-122.338;2023-03-15T00:35:44;100283.01;;;9.87;100.00
50065;BME280;64524;47.848;-122.338;2023-03-15T00:38:43;100276.96;;;9.89;100.00
50065;BME280;64524;47.848;-122.338;2023-03-15T00:41:53;100276.98;;;9.91;100.00
50065;BME280;64524;47.848;-122.338;2023-03-15T00:44:29;100277.17;;;9.94;100.00
50065;BME280;64524;47.848;-122.338;2023-03-15T00:47:12;100274.77;;;9.96;100.00
50065;BME280;64524;47.848;-122.338;2023-03-15T00:49:58;100273.58;;;9.98;100.00
50065;BME280;64524;47.848;-122.338;2023-03-15T00:52:33;100271.35;;;10.01;100.00
50065;BME280;64524;47.848;-122.338;2023-03-15T00:55:26;100270.35;;;10.06;100.00
50065;BME280;64524;47.848;-122.338;2023-03-15T00:58:01;100270.88;;;10.10;100.00
50065;BME280;64524;47.848;-122.338;2023-03-15T01:00:30;100265.89;;;10.12;100.00
50065;BME280;64524;47.848;-122.338;2023-03-15T01:03:01;100267.98;;;10.16;100.00
50065;BME280;64524;47.848;-122.338;2023-03-15T01:05:51;100266.45;;;10.19;100.00
50065;BME280;64524;47.848;-122.338;2023-03-15T01:08:39;100272.02;;;10.24;100.00
50065;BME280;64524;47.848;-122.338;2023-03-15T01:11:22;100269.25;;;10.27;100.00
50065;BME280;64524;47.848;-122.338;2023-03-15T01:13:57;100269.63;;;10.28;100.00
50065;BME280;64524;47.848;-122.338;2023-03-15T01:16:41;100267.55;;;10.30;100.00
50065;BME280;64524;47.848;-122.338;2023-03-15T01:19:40;100266.20;;;10.31;100.00
50065;BME280;64524;47.848;-122.338;2023-03-15T01:29:26;100262.87;;;10.28;100.00
50065;BME280;64524;47.848;-122.338;2023-03-15T01:32:44;100261.47;;;10.25;100.00
50065;BME280;64524;47.848;-122.338;2023-03-15T01:35:24;100259.52;;;10.20;100.00
50065;BME280;64524;47.848;-122.338;2023-03-15T01:37:56;100258.30;;;10.17;100.00
50065;BME280;64524;47.848;-122.338;2023-03-15T01:41:02;100257.92;;;10.14;100.00
50065;BME280;64524;47.848;-122.338;2023-03-15T01:50:28;100257.39;;;9.86;100.00
50065;BME280;64524;47.848;-122.338;2023-03-15T01:53:22;100265.77;;;9.72;100.00
50065;BME280;64524;47.848;-122.338;2023-03-15T01:56:09;100262.56;;;9.61;100.00
50065;BME280;64524;47.848;-122.338;2023-03-15T01:58:45;100267.30;;;9.51;100.00
50065;BME280;64524;47.848;-122.338;2023-03-15T02:01:26;100266.17;;;9.39;100.00
50065;BME280;64524;47.848;-122.338;2023-03-15T02:04:29;100277.77;;;9.24;100.00
50065;BME280;64524;47.848;-122.338;2023-03-15T02:07:33;100279.48;;;9.06;100.00
50065;BME280;64524;47.848;-122.338;2023-03-15T02:10:34;100280.86;;;8.92;100.00
50065;BME280;64524;47.848;-122.338;2023-03-15T02:15:56;100287.14;;;8.68;100.00
50065;BME280;64524;47.848;-122.338;2023-03-15T02:18:48;100291.02;;;8.60;100.00
50065;BME280;64524;47.848;-122.338;2023-03-15T02:22:17;100297.27;;;8.51;100.00
50065;BME280;64524;47.848;-122.338;2023-03-15T02:27:50;100297.90;;;8.24;100.00
50065;BME280;64524;47.848;-122.338;2023-03-15T02:30:51;100294.81;;;8.14;100.00
50065;BME280;64524;47.848;-122.338;2023-03-15T02:34:03;100297.92;;;8.02;100.00
50065;BME280;64524;47.848;-122.338;2023-03-15T02:36:43;100301.92;;;7.93;100.00
50065;BME280;64524;47.848;-122.338;2023-03-15T02:39:22;100304.02;;;7.84;100.00
50065;BME280;64524;47.848;-122.338;2023-03-15T02:41:57;100306.68;;;7.79;100.00
50065;BME280;64524;47.848;-122.338;2023-03-15T02:44:49;100309.71;;;7.74;100.00
50065;BME280;64524;47.848;-122.338;2023-03-15T02:47:26;100311.19;;;7.69;100.00
50065;BME280;64524;47.848;-122.338;2023-03-15T02:55:24;100332.14;;;7.56;100.00
50065;BME280;64524;47.848;-122.338;2023-03-15T03:01:05;100341.42;;;7.44;100.00
50065;BME280;64524;47.848;-122.338;2023-03-15T03:03:39;100349.39;;;7.37;100.00
50065;BME280;64524;47.848;-122.338;2023-03-15T03:06:36;100347.36;;;7.31;100.00
50065;BME280;64524;47.848;-122.338;2023-03-15T03:09:26;100350.09;;;7.20;100.00
50065;BME280;64524;47.848;-122.338;2023-03-15T03:12:23;100355.08;;;7.10;100.00
50065;BME280;64524;47.848;-122.338;2023-03-15T03:14:57;100357.66;;;7.02;100.00
50065;BME280;64524;47.848;-122.338;2023-03-15T03:17:53;100361.45;;;6.94;100.00
50065;BME280;64524;47.848;-122.338;2023-03-15T03:20:50;100366.61;;;6.86;100.00
50065;BME280;64524;47.848;-122.338;2023-03-15T03:23:36;100369.30;;;6.84;100.00
50065;BME280;64524;47.848;-122.338;2023-03-15T03:26:24;100369.64;;;6.82;100.00
50065;BME280;64524;47.848;-122.338;2023-03-15T03:28:58;100374.89;;;6.78;100.00
50065;BME280;64524;47.848;-122.338;2023-03-15T03:31:53;100380.47;;;6.74;100.00
50065;BME280;64524;47.848;-122.338;2023-03-15T03:34:28;100378.50;;;6.70;100.00
50065;BME280;64524;47.848;-122.338;2023-03-15T03:39:59;100386.11;;;6.65;100.00
50065;BME280;64524;47.848;-122.338;2023-03-15T03:42:29;100388.33;;;6.63;100.00
50065;BME280;64524;47.848;-122.338;2023-03-15T03:45:39;100398.23;;;6.60;100.00
50065;BME280;64524;47.848;-122.338;2023-03-15T03:48:18;100403.70;;;6.58;100.00
50065;BME280;64524;47.848;-122.338;2023-03-15T03:51:18;100409.23;;;6.59;100.00
50065;BME280;64524;47.848;-122.338;2023-03-15T03:54:26;100416.17;;;6.62;100.00
50065;BME280;64524;47.848;-122.338;2023-03-15T03:56:58;100419.98;;;6.62;100.00
50065;BME280;64524;47.848;-122.338;2023-03-15T03:59:38;100423.17;;;6.60;100.00
50065;BME280;64524;47.848;-122.338;2023-03-15T04:02:07;100426.10;;;6.60;100.00
50065;BME280;64524;47.848;-122.338;2023-03-15T04:04:36;100437.29;;;6.60;100.00
50065;BME280;64524;47.848;-122.338;2023-03-15T04:07:08;100441.13;;;6.61;100.00
50065;BME280;64524;47.848;-122.338;2023-03-15T04:12:25;100453.62;;;6.65;100.00
50065;BME280;64524;47.848;-122.338;2023-03-15T04:15:05;100456.91;;;6.66;100.00
50065;BME280;64524;47.848;-122.338;2023-03-15T04:17:37;100458.27;;;6.66;100.00
50065;BME280;64524;47.848;-122.338;2023-03-15T04:20:38;100461.88;;;6.66;100.00
50065;BME280;64524;47.848;-122.338;2023-03-15T04:23:07;100463.66;;;6.68;100.00
50065;BME280;64524;47.848;-122.338;2023-03-15T04:25:36;100468.16;;;6.69;100.00
50065;BME280;64524;47.848;-122.338;2023-03-15T04:28:35;100478.15;;;6.69;100.00
50065;BME280;64524;47.848;-122.338;2023-03-15T04:37:38;100496.75;;;6.69;100.00
50065;BME280;64524;47.848;-122.338;2023-03-15T04:40:21;100500.37;;;6.69;100.00
50065;BME280;64524;47.848;-122.338;2023-03-15T04:42:52;100502.85;;;6.65;100.00
50065;BME280;64524;47.848;-122.338;2023-03-15T04:48:26;100511.85;;;6.54;100.00
50065;BME280;64524;47.848;-122.338;2023-03-15T04:51:35;100518.56;;;6.47;100.00
50065;BME280;64524;47.848;-122.338;2023-03-15T04:54:14;100529.99;;;6.43;100.00
50065;BME280;64524;47.848;-122.338;2023-03-15T04:57:03;100536.77;;;6.39;100.00
50065;BME280;64524;47.848;-122.338;2023-03-15T04:59:33;100545.27;;;6.35;100.00
50065;BME280;64524;47.848;-122.338;2023-03-15T05:02:08;100552.06;;;6.32;100.00
50065;BME280;64524;47.848;-122.338;2023-03-15T05:04:43;100553.90;;;6.29;100.00
50065;BME280;64524;47.848;-122.338;2023-03-15T05:07:11;100557.27;;;6.27;100.00
50065;BME280;64524;47.848;-122.338;2023-03-15T05:09:40;100559.27;;;6.25;100.00
50065;BME280;64524;47.848;-122.338;2023-03-15T05:12:13;100561.39;;;6.20;100.00
50065;BME280;64524;47.848;-122.338;2023-03-15T05:14:43;100563.05;;;6.18;100.00
50065;BME280;64524;47.848;-122.338;2023-03-15T05:17:12;100572.63;;;6.16;100.00
50065;BME280;64524;47.848;-122.338;2023-03-15T05:22:25;100585.83;;;6.14;100.00
50065;BME280;64524;47.848;-122.338;2023-03-15T05:25:14;100589.95;;;6.14;100.00
50065;BME280;64524;47.848;-122.338;2023-03-15T05:31:44;100591.02;;;6.16;100.00
50065;BME280;64524;47.848;-122.338;2023-03-15T05:37:42;100590.51;;;6.15;100.00
50065;BME280;64524;47.848;-122.338;2023-03-15T05:40:11;100589.92;;;6.14;100.00
50065;BME280;64524;47.848;-122.338;2023-03-15T05:42:43;100592.95;;;6.11;100.00
50065;BME280;64524;47.848;-122.338;2023-03-15T05:45:52;100595.40;;;6.06;100.00
50065;BME280;64524;47.848;-122.338;2023-03-15T05:48:53;100598.71;;;6.02;100.00
50065;BME280;64524;47.848;-122.338;2023-03-15T06:01:12;100604.06;;;5.86;100.00
50065;BME280;64524;47.848;-122.338;2023-03-15T06:04:05;100605.20;;;5.84;100.00
50065;BME280;64524;47.848;-122.338;2023-03-15T06:07:07;100614.27;;;5.82;100.00
50065;BME280;64524;47.848;-122.338;2023-03-15T06:13:03;100631.42;;;5.74;100.00
50065;BME280;64524;47.848;-122.338;2023-03-15T06:16:14;100636.84;;;5.72;100.00
50065;BME280;64524;47.848;-122.338;2023-03-15T06:19:12;100637.44;;;5.69;100.00
50065;BME280;64524;47.848;-122.338;2023-03-15T06:25:13;100650.69;;;5.64;100.00
50065;BME280;64524;47.848;-122.338;2023-03-15T06:31:30;100664.82;;;5.54;100.00
50065;BME280;64524;47.848;-122.338;2023-03-15T06:34:03;100669.22;;;5.52;100.00
50065;BME280;64524;47.848;-122.338;2023-03-15T06:36:52;100672.91;;;5.49;100.00
50065;BME280;64524;47.848;-122.338;2023-03-15T06:39:24;100675.04;;;5.46;100.00
50065;BME280;64524;47.848;-122.338;2023-03-15T06:41:56;100678.41;;;5.44;100.00
50065;BME280;64524;47.848;-122.338;2023-03-15T06:44:30;100685.04;;;5.41;100.00
50065;BME280;64524;47.848;-122.338;2023-03-15T06:47:02;100689.16;;;5.36;100.00
50065;BME280;64524;47.848;-122.338;2023-03-15T06:49:55;100695.71;;;5.32;100.00
50065;BME280;64524;47.848;-122.338;2023-03-15T06:55:41;100693.94;;;5.25;100.00
50065;BME280;64524;47.848;-122.338;2023-03-15T06:58:29;100700.38;;;5.22;100.00
50065;BME280;64524;47.848;-122.338;2023-03-15T07:01:21;100704.02;;;5.18;100.00
50065;BME280;64524;47.848;-122.338;2023-03-15T07:07:12;100707.41;;;5.12;100.00
50065;BME280;64524;47.848;-122.338;2023-03-15T07:09:43;100712.14;;;5.09;100.00
50065;BME280;64524;47.848;-122.338;2023-03-15T07:12:41;100714.29;;;5.07;100.00
50065;BME280;64524;47.848;-122.338;2023-03-15T07:15:29;100717.30;;;5.05;100.00
50065;BME280;64524;47.848;-122.338;2023-03-15T07:18:28;100715.77;;;5.05;100.00
50065;BME280;64524;47.848;-122.338;2023-03-15T07:21:31;100715.04;;;5.04;100.00
50065;BME280;64524;47.848;-122.338;2023-03-15T07:31:35;100728.20;;;4.92;100.00
50065;BME280;64524;47.848;-122.338;2023-03-15T07:34:06;100729.44;;;4.88;100.00
50065;BME280;64524;47.848;-122.338;2023-03-15T07:36:56;100736.75;;;4.86;100.00
50065;BME280;64524;47.848;-122.338;2023-03-15T07:39:26;100744.04;;;4.84;100.00
50065;BME280;64524;47.848;-122.338;2023-03-15T07:42:39;100746.39;;;4.82;100.00
50065;BME280;64524;47.848;-122.338;2023-03-15T07:45:46;100751.06;;;4.78;100.00
50065;BME280;64524;47.848;-122.338;2023-03-15T07:48:41;100757.44;;;4.74;100.00
50065;BME280;64524;47.848;-122.338;2023-03-15T07:54:40;100775.95;;;4.65;100.00
50065;BME280;64524;47.848;-122.338;2023-03-15T07:57:58;100775.38;;;4.62;100.00
50065;BME280;64524;47.848;-122.338;2023-03-15T08:01:10;100774.30;;;4.61;100.00
50065;BME280;64524;47.848;-122.338;2023-03-15T08:03:44;100782.11;;;4.59;100.00
50065;BME280;64524;47.848;-122.338;2023-03-15T08:06:34;100786.99;;;4.57;100.00
50065;BME280;64524;47.848;-122.338;2023-03-15T08:09:21;100792.95;;;4.55;100.00
50065;BME280;64524;47.848;-122.338;2023-03-15T08:12:32;100797.16;;;4.53;100.00
50065;BME280;64524;47.848;-122.338;2023-03-15T08:15:25;100805.69;;;4.52;100.00
50065;BME280;64524;47.848;-122.338;2023-03-15T08:18:19;100805.81;;;4.51;100.00
50065;BME280;64524;47.848;-122.338;2023-03-15T08:21:43;100810.04;;;4.49;100.00
50065;BME280;64524;47.848;-122.338;2023-03-15T08:24:58;100818.42;;;4.49;100.00
50065;BME280;64524;47.848;-122.338;2023-03-15T08:27:59;100824.98;;;4.50;100.00
50065;BME280;64524;47.848;-122.338;2023-03-15T08:30:39;100833.96;;;4.51;100.00
50065;BME280;64524;47.848;-122.338;2023-03-15T08:33:12;100835.38;;;4.52;100.00
50065;BME280;64524;47.848;-122.338;2023-03-15T08:36:09;100844.88;;;4.54;100.00
50065;BME280;64524;47.848;-122.338;2023-03-15T08:39:08;100852.87;;;4.56;100.00
50065;BME280;64524;47.848;-122.338;2023-03-15T08:48:00;100869.08;;;4.63;100.00
50065;BME280;64524;47.848;-122.338;2023-03-15T08:51:09;100875.09;;;4.68;100.00
50065;BME280;64524;47.848;-122.338;2023-03-15T08:53:38;100883.25;;;4.70;100.00
50065;BME280;64524;47.848;-122.338;2023-03-15T08:56:28;100893.02;;;4.74;100.00
50065;BME280;64524;47.848;-122.338;2023-03-15T08:59:07;100902.11;;;4.78;100.00
50065;BME280;64524;47.848;-122.338;2023-03-15T09:01:58;100907.55;;;4.82;100.00
50065;BME280;64524;47.848;-122.338;2023-03-15T09:04:56;100911.05;;;4.88;100.00
50065;BME280;64524;47.848;-122.338;2023-03-15T09:10:22;100927.40;;;4.98;100.00
50065;BME280;64524;47.848;-122.338;2023-03-15T09:12:57;100936.35;;;5.04;100.00
50065;BME280;64524;47.848;-122.338;2023-03-15T09:15:26;100943.54;;;5.07;100.00
50065;BME280;64524;47.848;-122.338;2023-03-15T09:21:17;100958.60;;;5.15;100.00
50065;BME280;64524;47.848;-122.338;2023-03-15T09:24:11;100965.75;;;5.18;100.00
50065;BME280;64524;47.848;-122.338;2023-03-15T09:26:44;100968.80;;;5.22;100.00
50065;BME280;64524;47.848;-122.338;2023-03-15T09:33:05;100978.95;;;5.26;100.00
50065;BME280;64524;47.848;-122.338;2023-03-15T09:38:48;100983.80;;;5.32;100.00
50065;BME280;64524;47.848;-122.338;2023-03-15T09:41:43;100989.20;;;5.34;100.00
50065;BME280;64524;47.848;-122.338;2023-03-15T09:45:06;100987.53;;;5.35;100.00
50065;BME280;64524;47.848;-122.338;2023-03-15T09:47:55;100995.48;;;5.37;100.00
50065;BME280;64524;47.848;-122.338;2023-03-15T09:54:27;101012.84;;;5.42;100.00
50065;BME280;64524;47.848;-122.338;2023-03-15T10:00:43;101024.17;;;5.46;100.00
50065;BME280;64524;47.848;-122.338;2023-03-15T10:10:19;101036.95;;;5.53;100.00
50065;BME280;64524;47.848;-122.338;2023-03-15T10:16:58;101051.52;;;5.56;100.00
50065;BME280;64524;47.848;-122.338;2023-03-15T10:20:48;101054.66;;;5.57;100.00
50065;BME280;64524;47.848;-122.338;2023-03-15T10:26:52;101057.92;;;5.62;100.00
50065;BME280;64524;47.848;-122.338;2023-03-15T10:40:08;101080.27;;;5.80;100.00
50065;BME280;64524;47.848;-122.338;2023-03-15T10:47:11;101098.24;;;5.83;100.00
50065;BME280;64524;47.848;-122.338;2023-03-15T11:04:09;101130.37;;;5.83;100.00
50065;BME280;64524;47.848;-122.338;2023-03-15T11:07:21;101138.64;;;5.83;100.00
50065;BME280;64524;47.848;-122.338;2023-03-15T11:10:19;101139.13;;;5.82;100.00
50065;BME280;64524;47.848;-122.338;2023-03-15T11:13:37;101145.18;;;5.83;100.00
50065;BME280;64524;47.848;-122.338;2023-03-15T11:19:40;101169.34;;;5.85;100.00
50065;BME280;64524;47.848;-122.338;2023-03-15T11:26:21;101194.66;;;5.95;100.00
50065;BME280;64524;47.848;-122.338;2023-03-15T11:53:25;101262.20;;;5.77;100.00
50065;BME280;64524;47.848;-122.338;2023-03-15T11:56:27;101266.45;;;5.76;100.00
50065;BME280;64524;47.848;-122.338;2023-03-15T11:59:30;101272.06;;;5.78;100.00
50065;BME280;64524;47.848;-122.338;2023-03-15T12:14:35;101296.67;;;5.84;100.00
50065;BME280;64524;47.848;-122.338;2023-03-15T12:17:53;101305.14;;;5.85;100.00
50065;BME280;64524;47.848;-122.338;2023-03-15T12:27:31;101317.59;;;5.82;100.00
50065;BME280;64524;47.848;-122.338;2023-03-15T12:30:45;101322.77;;;5.79;100.00
50065;BME280;64524;47.848;-122.338;2023-03-15T12:33:17;101334.05;;;5.77;100.00
50065;BME280;64524;47.848;-122.338;2023-03-15T12:36:13;101336.39;;;5.75;100.00
50065;BME280;64524;47.848;-122.338;2023-03-15T12:39:19;101344.05;;;5.73;100.00
50065;BME280;64524;47.848;-122.338;2023-03-15T12:42:00;101349.90;;;5.69;100.00
50065;BME280;64524;47.848;-122.338;2023-03-15T13:02:32;101381.47;;;5.72;100.00
50065;BME280;64524;47.848;-122.338;2023-03-15T13:41:49;101485.16;;;5.69;100.00
50065;BME280;64524;47.848;-122.338;2023-03-15T13:47:38;101494.45;;;5.65;100.00
50065;BME280;64524;47.848;-122.338;2023-03-15T13:50:36;101495.12;;;5.61;100.00
50065;BME280;64524;47.848;-122.338;2023-03-15T14:01:08;101525.92;;;5.38;100.00
50065;BME280;64524;47.848;-122.338;2023-03-15T14:14:59;101550.79;;;5.12;100.00
50065;BME280;64524;47.848;-122.338;2023-03-15T14:42:30;101607.64;;;4.59;100.00
50065;BME280;64524;47.848;-122.338;2023-03-15T14:45:03;101614.65;;;4.55;100.00
50065;BME280;64524;47.848;-122.338;2023-03-15T14:47:32;101614.96;;;4.51;100.00
50065;BME280;64524;47.848;-122.338;2023-03-15T14:50:22;101621.90;;;4.46;100.00
50065;BME280;64524;47.848;-122.338;2023-03-15T14:52:52;101625.59;;;4.41;100.00
50065;BME280;64524;47.848;-122.338;2023-03-15T14:56:02;101630.23;;;4.37;100.00
50065;BME280;64524;47.848;-122.338;2023-03-15T14:58:33;101642.35;;;4.33;100.00
50065;BME280;64524;47.848;-122.338;2023-03-15T15:01:18;101650.55;;;4.30;100.00
50065;BME280;64524;47.848;-122.338;2023-03-15T15:04:41;101663.39;;;4.26;100.00
50065;BME280;64524;47.848;-122.338;2023-03-15T15:27:42;101709.13;;;4.12;100.00
50065;BME280;64524;47.848;-122.338;2023-03-15T15:30:41;101720.25;;;4.11;100.00
50065;BME280;64524;47.848;-122.338;2023-03-15T15:33:43;101726.02;;;4.10;100.00
50065;BME280;64524;47.848;-122.338;2023-03-15T15:36:36;101735.79;;;4.10;100.00
50065;BME280;64524;47.848;-122.338;2023-03-15T15:39:38;101741.63;;;4.10;100.00
50065;BME280;64524;47.848;-122.338;2023-03-15T15:42:14;101749.95;;;4.09;100.00
50065;BME280;64524;47.848;-122.338;2023-03-15T15:44:42;101753.73;;;4.09;100.00
50065;BME280;64524;47.848;-122.338;2023-03-15T15:47:16;101762.73;;;4.10;100.00
50065;BME280;64524;47.848;-122.338;2023-03-15T16:07:00;101808.50;;;4.32;100.00
50065;BME280;64524;47.848;-122.338;2023-03-15T16:09:39;101815.05;;;4.35;100.00
50065;BME280;64524;47.848;-122.338;2023-03-15T16:12:25;101816.56;;;4.41;100.00
50065;BME280;64524;47.848;-122.338;2023-03-15T16:15:01;101823.95;;;4.48;100.00
50065;BME280;64524;47.848;-122.338;2023-03-15T16:17:31;101824.23;;;4.56;100.00
50065;BME280;64524;47.848;-122.338;2023-03-15T16:20:27;101831.73;;;4.65;100.00
50065;BME280;64524;47.848;-122.338;2023-03-15T16:26:32;101843.67;;;4.86;100.00
50065;BME280;64524;47.848;-122.338;2023-03-15T16:29:28;101846.33;;;4.97;100.00
50065;BME280;64524;47.848;-122.338;2023-03-15T16:39:16;101864.98;;;5.33;100.00
50065;BME280;64524;47.848;-122.338;2023-03-15T16:42:46;101869.45;;;5.43;100.00
50065;BME280;64524;47.848;-122.338;2023-03-15T16:53:06;101884.80;;;5.71;100.00
50065;BME280;64524;47.848;-122.338;2023-03-15T16:59:29;101904.37;;;5.88;100.00
50065;BME280;64524;47.848;-122.338;2023-03-15T17:02:17;101905.66;;;5.93;100.00
50065;BME280;64524;47.848;-122.338;2023-03-15T17:05:07;101911.12;;;5.98;100.00
50065;BME280;64524;47.848;-122.338;2023-03-15T17:07:39;101915.34;;;6.04;100.00
50065;BME280;64524;47.848;-122.338;2023-03-15T17:10:26;101918.17;;;6.09;100.00
50065;BME280;64524;47.848;-122.338;2023-03-15T17:15:56;101923.48;;;6.23;100.00
50065;BME280;64524;47.848;-122.338;2023-03-15T17:18:25;101934.30;;;6.29;100.00
50065;BME280;64524;47.848;-122.338;2023-03-15T17:23:40;101934.83;;;6.40;100.00
50065;BME280;64524;47.848;-122.338;2023-03-15T17:26:58;101939.38;;;6.45;100.00
50065;BME280;64524;47.848;-122.338;2023-03-15T17:30:07;101944.98;;;6.51;100.00
50065;BME280;64524;47.848;-122.338;2023-03-15T18:06:55;101997.70;;;6.95;100.00
50065;BME280;64524;47.848;-122.338;2023-03-15T18:09:36;102000.14;;;6.96;100.00
50065;BME280;64524;47.848;-122.338;2023-03-15T18:15:33;102011.98;;;6.99;100.00
50065;BME280;64524;47.848;-122.338;2023-03-15T18:32:21;102030.50;;;7.15;100.00
50065;BME280;64524;47.848;-122.338;2023-03-15T18:35:10;102030.31;;;7.19;100.00
50065;BME280;64524;47.848;-122.338;2023-03-15T19:09:35;102060.92;;;7.39;100.00
50065;BME280;64524;47.848;-122.338;2023-03-15T19:12:37;102062.14;;;7.43;100.00
50065;BME280;64524;47.848;-122.338;2023-03-15T19:22:19;102077.98;;;7.36;100.00
50065;BME280;64524;47.848;-122.338;2023-03-15T19:31:30;102086.12;;;7.32;100.00
50065;BME280;64524;47.848;-122.338;2023-03-15T19:34:02;102089.09;;;7.34;100.00
50065;BME280;64524;47.848;-122.338;2023-03-15T19:57:31;102107.80;;;7.58;100.00
50065;BME280;64524;47.848;-122.338;2023-03-15T20:24:26;102120.98;;;8.13;100.00
50065;BME280;64524;47.848;-122.338;2023-03-15T20:30:44;102127.10;;;8.31;100.00
50065;BME280;64524;47.848;-122.338;2023-03-15T20:33:31;102127.66;;;8.35;100.00
50065;BME280;64524;47.848;-122.338;2023-03-15T20:36:37;102128.19;;;8.40;100.00
50065;BME280;64524;47.848;-122.338;2023-03-15T20:39:09;102128.00;;;8.43;100.00
50065;BME280;64524;47.848;-122.338;2023-03-15T20:45:30;102127.95;;;8.50;100.00
50065;BME280;64524;47.848;-122.338;2023-03-15T20:48:16;102125.38;;;8.54;100.00
50065;BME280;64524;47.848;-122.338;2023-03-15T21:01:11;102134.08;;;8.72;100.00
50065;BME280;64524;47.848;-122.338;2023-03-15T21:07:12;102136.10;;;8.71;100.00
50065;BME280;64524;47.848;-122.338;2023-03-15T21:10:24;102132.43;;;8.70;100.00
50065;BME280;64524;47.848;-122.338;2023-03-15T21:13:13;102129.64;;;8.70;100.00
50065;BME280;64524;47.848;-122.338;2023-03-15T21:16:11;102130.86;;;8.70;100.00
50065;BME280;64524;47.848;-122.338;2023-03-15T21:19:00;102134.61;;;8.69;100.00
50065;BME280;64524;47.848;-122.338;2023-03-15T21:21:41;102137.11;;;8.66;100.00
50065;BME280;64524;47.848;-122.338;2023-03-15T21:30:22;102147.33;;;8.67;100.00
50065;BME280;64524;47.848;-122.338;2023-03-15T21:32:54;102143.19;;;8.67;100.00
50065;BME280;64524;47.848;-122.338;2023-03-15T21:35:28;102145.81;;;8.68;100.00
50065;BME280;64524;47.848;-122.338;2023-03-15T21:41:04;102149.35;;;8.70;100.00
50065;BME280;64524;47.848;-122.338;2023-03-15T21:44:00;102146.12;;;8.71;100.00
50065;BME280;64524;47.848;-122.338;2023-03-15T21:46:48;102142.75;;;8.73;100.00
50065;BME280;64524;47.848;-122.338;2023-03-15T21:49:30;102145.30;;;8.76;100.00
50065;BME280;64524;47.848;-122.338;2023-03-15T21:55:56;102145.08;;;8.83;100.00
50065;BME280;64524;47.848;-122.338;2023-03-15T21:58:26;102146.91;;;8.86;100.00
50065;BME280;64524;47.848;-122.338;2023-03-15T22:01:08;102149.65;;;8.90;100.00
50065;BME280;64524;47.848;-122.338;2023-03-15T22:03:47;102155.48;;;8.92;100.00
50065;BME280;64524;47.848;-122.338;2023-03-15T22:09:55;102159.17;;;8.98;100.00
50065;BME280;64524;47.848;-122.338;2023-03-15T22:22:59;102174.04;;;9.07;100.00
50065;BME280;64524;47.848;-122.338;2023-03-15T22:36:38;102188.95;;;9.12;100.00
50065;BME280;64524;47.848;-122.338;2023-03-15T23:12:50;102203.79;;;9.07;100.00
50065;BME280;64524;47.848;-122.338;2023-03-15T23:22:24;102212.65;;;9.00;100.00
50065;BME280;64524;47.848;-122.338;2023-03-15T23:28:58;102209.10;;;9.01;100.00
50065;BME280;64524;47.848;-122.338;2023-03-15T23:44:38;102221.80;;;9.08;100.00
50065;BME280;64524;47.848;-122.338;2023-03-15T23:47:58;102226.80;;;9.08;100.00
50065;BME280;64524;47.848;-122.338;2023-03-15T23:51:07;102226.97;;;9.08;100.00
50065;BME280;64524;47.848;-122.338;2023-03-15T23:54:21;102232.75;;;9.05;100.00
50065;BME280;64524;47.848;-122.338;2023-03-15T23:57:11;102235.59;;;9.03;100.00
